createdAt,value
2023-05-18T00:02:21.790Z,99713.06
2023-05-18T00:04:49.629Z,99703.22
2023-05-18T00:07:17.203Z,99704.31
2023-05-18T00:09:44.655Z,99709.75
2023-05-18T00:12:12.350Z,99707.28
2023-05-18T00:14:39.750Z,99705.38
2023-05-18T00:17:07.271Z,99702.66
2023-05-18T00:19:35.075Z,99703.94
2023-05-18T00:24:48.211Z,99699.53
2023-05-18T00:27:15.683Z,99707.97
2023-05-18T00:29:43.159Z,99710.91
2023-05-18T00:32:12.733Z,99708.19
2023-05-18T00:34:40.184Z,99709.84
2023-05-18T00:37:07.611Z,99709.25
2023-05-18T00:39:35.524Z,99709.25
2023-05-18T00:42:03.555Z,99711.13
2023-05-18T00:44:31.013Z,99714.94
2023-05-18T00:47:00.226Z,99705.94
2023-05-18T00:49:27.722Z,99715.12
2023-05-18T00:51:55.191Z,99721.66
2023-05-18T00:54:26.351Z,99715.38
2023-05-18T00:56:54.144Z,99716.44
2023-05-18T00:59:22.175Z,99716.22
2023-05-18T01:01:49.932Z,99718.09
2023-05-18T01:04:17.394Z,99721.06
2023-05-18T01:06:46.517Z,99722.16
2023-05-18T01:09:14.285Z,99715.84
2023-05-18T01:12:00.257Z,99715.84
2023-05-18T01:14:34.240Z,99727.34
2023-05-18T01:17:14.628Z,99726.97
2023-05-18T01:19:52.356Z,99727.22
2023-05-18T01:23:02.188Z,99726.16
2023-05-18T01:25:58.809Z,99727.81
2023-05-18T01:28:29.772Z,99735.91
2023-05-18T01:30:58.453Z,99730.16
2023-05-18T01:33:26.178Z,99723.28
2023-05-18T01:35:53.692Z,99730.62
2023-05-18T01:38:23.226Z,99738.81
2023-05-18T01:41:17.044Z,99735.25
2023-05-18T01:44:03.531Z,99742.09
2023-05-18T01:46:49.889Z,99737.72
2023-05-18T01:49:25.280Z,99746.31
2023-05-18T01:51:52.789Z,99741.09
2023-05-18T01:54:20.865Z,99745.50
2023-05-18T01:56:48.434Z,99752.84
2023-05-18T01:59:16.028Z,99755.56
2023-05-18T02:01:44.966Z,99758.28
2023-05-18T02:04:12.849Z,99755.56
2023-05-18T02:06:40.641Z,99761.84
2023-05-18T02:09:09.134Z,99756.63
2023-05-18T02:11:36.886Z,99756.63
2023-05-18T02:14:04.382Z,99760.19
2023-05-18T02:16:31.900Z,99760.41
2023-05-18T02:19:00.356Z,99768.59
2023-05-18T02:21:28.063Z,99769.62
2023-05-18T02:23:55.493Z,99772.97
2023-05-18T02:26:23.203Z,99765.88
2023-05-18T02:28:52.873Z,99771.06
2023-05-18T02:31:39.261Z,99771.06
2023-05-18T02:34:07.072Z,99762.06
2023-05-18T02:36:40.200Z,99776.75
2023-05-18T02:39:08.692Z,99772.34
2023-05-18T02:41:36.371Z,99773.19
2023-05-18T02:44:04.773Z,99775.06
2023-05-18T02:46:32.551Z,99779.69
2023-05-18T02:49:00.052Z,99773.41
2023-05-18T02:51:27.588Z,99778.84
2023-05-18T02:53:55.539Z,99780.75
2023-05-18T02:56:23.385Z,99786.19
2023-05-18T02:58:57.922Z,99781.59
2023-05-18T03:01:29.249Z,99769.03
2023-05-18T03:03:59.565Z,99776.97
2023-05-18T03:06:30.384Z,99778.28
2023-05-18T03:08:58.806Z,99776.38
2023-05-18T03:11:27.163Z,99781.00
2023-05-18T03:13:55.228Z,99779.94
2023-05-18T03:16:28.019Z,99780.16
2023-05-18T03:18:58.966Z,99779.34
2023-05-18T03:21:33.503Z,99788.34
2023-05-18T03:24:01.603Z,99779.34
2023-05-18T03:26:32.850Z,99781.19
2023-05-18T03:29:01.588Z,99783.09
2023-05-18T03:31:29.646Z,99786.66
2023-05-18T03:33:57.387Z,99788.34
2023-05-18T03:36:28.033Z,99791.88
2023-05-18T03:38:55.884Z,99787.28
2023-05-18T03:41:23.558Z,99793.53
2023-05-18T03:43:51.375Z,99803.37
2023-05-18T03:46:19.228Z,99794.38
2023-05-18T03:48:46.844Z,99810.47
2023-05-18T03:51:15.122Z,99803.37
2023-05-18T03:53:43.074Z,99810.47
2023-05-18T03:56:10.650Z,99805.88
2023-05-18T03:58:38.136Z,99811.94
2023-05-18T04:01:05.896Z,99814.66
2023-05-18T04:03:34.779Z,99820.09
2023-05-18T04:06:02.468Z,99820.09
2023-05-18T04:08:30.487Z,99822.00
2023-05-18T04:10:59.299Z,99824.09
2023-05-18T04:13:26.790Z,99822.00
2023-05-18T04:15:54.302Z,99815.94
2023-05-18T04:18:22.085Z,99824.97
2023-05-18T04:20:49.647Z,99825.16
2023-05-18T04:23:17.896Z,99822.44
2023-05-18T04:25:46.022Z,99827.06
2023-05-18T04:28:13.467Z,99831.44
2023-05-18T04:30:41.100Z,99830.59
2023-05-18T04:33:08.943Z,99838.78
2023-05-18T04:35:36.610Z,99836.88
2023-05-18T04:38:05.316Z,99837.94
2023-05-18T04:40:34.080Z,99843.41
2023-05-18T04:43:02.069Z,99844.22
2023-05-18T04:45:30.308Z,99841.50
2023-05-18T04:47:58.691Z,99835.47
2023-05-18T04:50:26.369Z,99838.19
2023-05-18T04:52:53.979Z,99843.63
2023-05-18T04:55:28.914Z,99838.19
2023-05-18T04:57:57.302Z,99844.69
2023-05-18T05:00:26.284Z,99845.53
2023-05-18T05:02:54.301Z,99840.09
2023-05-18T05:05:22.705Z,99848.47
2023-05-18T05:07:51.766Z,99846.56
2023-05-18T05:10:22.120Z,99845.72
2023-05-18T05:12:50.335Z,99851.19
2023-05-18T05:15:18.457Z,99854.97
2023-05-18T05:17:48.864Z,99848.69
2023-05-18T05:20:17.749Z,99856.03
2023-05-18T05:22:45.373Z,99865.03
2023-05-18T05:25:13.349Z,99860.41
2023-05-18T05:27:41.181Z,99865.03
2023-05-18T05:30:09.192Z,99857.09
2023-05-18T05:32:36.986Z,99857.94
2023-05-18T05:35:06.286Z,99862.53
2023-05-18T05:37:34.544Z,99870.47
2023-05-18T05:40:02.056Z,99866.09
2023-05-18T05:42:32.156Z,99871.53
2023-05-18T05:44:59.556Z,99868.31
2023-05-18T05:47:27.377Z,99870.47
2023-05-18T05:49:55.430Z,99877.44
2023-05-18T05:52:23.318Z,99876.59
2023-05-18T05:54:51.592Z,99873.88
2023-05-18T05:57:19.392Z,99880.16
2023-05-18T05:59:46.865Z,99874.72
2023-05-18T06:02:15.158Z,99878.25
2023-05-18T06:04:43.503Z,99883.72
2023-05-18T06:07:11.179Z,99893.56
2023-05-18T06:09:38.653Z,99889.16
2023-05-18T06:12:07.204Z,99891.88
2023-05-18T06:14:34.823Z,99894.00
2023-05-18T06:17:02.784Z,99896.72
2023-05-18T06:19:30.758Z,99901.94
2023-05-18T06:21:58.231Z,99908.22
2023-05-18T06:24:26.732Z,99909.28
2023-05-18T06:26:54.642Z,99904.66
2023-05-18T06:29:23.572Z,99907.63
2023-05-18T06:31:51.831Z,99904.91
2023-05-18T06:34:20.196Z,99901.34
2023-05-18T06:36:47.640Z,99912.25
2023-05-18T06:39:15.116Z,99912.25
2023-05-18T06:41:45.680Z,99917.69
2023-05-18T06:44:19.478Z,99912.25
2023-05-18T06:46:53.631Z,99914.12
2023-05-18T06:49:21.503Z,99917.69
2023-05-18T06:51:49.120Z,99921.47
2023-05-18T06:54:17.292Z,99930.47
2023-05-18T06:56:44.822Z,99931.50
2023-05-18T06:59:12.389Z,99929.66
2023-05-18T07:01:40.259Z,99932.37
2023-05-18T07:04:08.198Z,99929.66
2023-05-18T07:06:36.618Z,99933.41
2023-05-18T07:09:04.490Z,99940.75
2023-05-18T07:11:31.947Z,99936.94
2023-05-18T07:13:59.367Z,99942.41
2023-05-18T07:16:28.087Z,99939.69
2023-05-18T07:18:57.080Z,99944.28
2023-05-18T07:21:25.302Z,99942.63
2023-05-18T07:23:53.104Z,99946.19
2023-05-18T07:26:22.524Z,99949.75
2023-05-18T07:28:51.388Z,99949.75
2023-05-18T07:31:21.419Z,99947.00
2023-05-18T07:33:49.033Z,99950.56
2023-05-18T07:36:16.948Z,99954.16
2023-05-18T07:38:44.705Z,99957.06
2023-05-18T07:41:12.129Z,99957.06
2023-05-18T07:43:39.748Z,99960.88
2023-05-18T07:46:07.512Z,99962.75
2023-05-18T07:48:34.966Z,99965.47
2023-05-18T07:51:03.175Z,99968.22
2023-05-18T07:53:30.875Z,99970.94
2023-05-18T07:55:58.490Z,99969.87
2023-05-18T07:58:26.049Z,99972.59
2023-05-18T08:00:54.027Z,99961.69
2023-05-18T08:03:21.923Z,99969.03
2023-05-18T08:05:49.412Z,99967.38
2023-05-18T08:08:16.951Z,99968.22
2023-05-18T08:10:44.798Z,99967.38
2023-05-18T08:13:12.497Z,99968.22
2023-05-18T08:15:41.029Z,99967.38
2023-05-18T08:18:08.831Z,99974.72
2023-05-18T08:20:36.333Z,99976.38
2023-05-18T08:23:04.107Z,99985.59
2023-05-18T08:25:32.096Z,99978.25
2023-05-18T08:27:59.899Z,99984.78
2023-05-18T08:30:27.383Z,99982.06
2023-05-18T08:32:55.109Z,99980.16
2023-05-18T08:35:22.681Z,99987.69
2023-05-18T08:37:50.665Z,99984.16
2023-05-18T08:40:18.542Z,99981.41
2023-05-18T08:42:52.483Z,99988.75
2023-05-18T08:45:24.400Z,99989.81
2023-05-18T08:47:52.075Z,99992.53
2023-05-18T08:50:23.528Z,99991.47
2023-05-18T08:52:54.578Z,99989.00
2023-05-18T08:55:23.801Z,99987.94
2023-05-18T08:57:56.346Z,99997.16
2023-05-18T09:00:24.783Z,99989.81
2023-05-18T09:02:52.483Z,99992.53
2023-05-18T09:05:20.120Z,99990.66
2023-05-18T09:07:47.960Z,99987.09
2023-05-18T09:10:15.872Z,99990.66
2023-05-18T09:12:43.761Z,99983.31
2023-05-18T09:15:11.818Z,99987.94
2023-05-18T09:17:39.391Z,99987.94
2023-05-18T09:20:07.616Z,99981.66
2023-05-18T09:22:35.895Z,99987.09
2023-05-18T09:25:04.067Z,99989.81
2023-05-18T09:27:31.522Z,99994.44
2023-05-18T09:29:59.277Z,99991.72
2023-05-18T09:32:26.774Z,99996.94
2023-05-18T09:34:55.474Z,99992.53
2023-05-18T09:37:23.227Z,99991.72
2023-05-18T09:40:09.083Z,100003.44
2023-05-18T09:42:41.019Z,99995.88
2023-05-18T09:45:24.184Z,100001.53
2023-05-18T09:47:52.055Z,99992.31
2023-05-18T09:50:20.862Z,99996.34
2023-05-18T09:52:49.454Z,99995.47
2023-05-18T09:55:17.660Z,99991.72
2023-05-18T09:57:46.428Z,99999.06
2023-05-18T10:00:19.196Z,99999.06
2023-05-18T10:02:49.256Z,99990.03
2023-05-18T10:05:23.425Z,100007.41
2023-05-18T10:07:51.266Z,99990.03
2023-05-18T10:10:22.481Z,99985.63
2023-05-18T10:12:54.043Z,99980.19
2023-05-18T10:15:22.585Z,99981.25
2023-05-18T10:17:51.768Z,99978.53
2023-05-18T10:20:20.249Z,99990.25
2023-05-18T10:22:48.602Z,99981.25
2023-05-18T10:25:21.021Z,99985.87
2023-05-18T10:27:49.900Z,99992.38
2023-05-18T10:30:20.483Z,99990.50
2023-05-18T10:32:47.983Z,99998.66
2023-05-18T10:35:15.818Z,99995.94
2023-05-18T10:37:47.933Z,99990.50
2023-05-18T10:40:15.787Z,99990.69
2023-05-18T10:42:43.282Z,99990.50
2023-05-18T10:45:10.902Z,99984.41
2023-05-18T10:47:42.496Z,99985.25
2023-05-18T10:50:10.733Z,99990.69
2023-05-18T10:52:38.298Z,99985.47
2023-05-18T10:55:07.016Z,99981.91
2023-05-18T10:57:39.829Z,99981.09
2023-05-18T11:00:09.418Z,99978.37
2023-05-18T11:02:42.454Z,99972.91
2023-05-18T11:05:10.866Z,99985.47
2023-05-18T11:07:38.395Z,99974.59
2023-05-18T11:10:10.567Z,99988.19
2023-05-18T11:12:38.465Z,99986.53
2023-05-18T11:15:06.510Z,99989.25
2023-05-18T11:17:33.930Z,99991.16
2023-05-18T11:20:12.819Z,99986.53
2023-05-18T11:22:48.962Z,99989.50
2023-05-18T11:25:28.751Z,99990.31
2023-05-18T11:28:01.840Z,100014.81
2023-05-18T11:30:29.950Z,100021.28
2023-05-18T11:33:10.086Z,100016.72
2023-05-18T11:36:03.688Z,100019.22
2023-05-18T11:39:07.016Z,100020.25
2023-05-18T11:41:36.064Z,100022.16
2023-05-18T11:44:06.833Z,100017.97
2023-05-18T11:46:34.271Z,100022.59
2023-05-18T11:49:08.105Z,100026.13
2023-05-18T11:52:01.131Z,100023.41
2023-05-18T11:54:28.817Z,100020.47
2023-05-18T11:56:56.222Z,100027.19
2023-05-18T11:59:39.742Z,100020.09
2023-05-18T12:02:08.862Z,100022.81
2023-05-18T12:04:37.570Z,100027.63
2023-05-18T12:07:05.310Z,100025.75
2023-05-18T12:09:32.861Z,100027.03
2023-05-18T12:12:01.310Z,100021.59
2023-05-18T12:14:28.744Z,100025.38
2023-05-18T12:16:56.869Z,100027.03
2023-05-18T12:19:24.774Z,100030.81
2023-05-18T12:21:52.660Z,100033.53
2023-05-18T12:24:21.084Z,100031.41
2023-05-18T12:26:48.762Z,100030.59
2023-05-18T12:29:20.004Z,100034.13
2023-05-18T12:31:48.013Z,100034.97
2023-05-18T12:34:15.949Z,100030.34
2023-05-18T12:36:52.711Z,100032.00
2023-05-18T12:39:21.174Z,100028.47
2023-05-18T12:41:48.732Z,100034.72
2023-05-18T12:44:16.461Z,100034.53
2023-05-18T12:46:44.257Z,100036.44
2023-05-18T12:49:11.777Z,100030.97
2023-05-18T12:51:39.627Z,100025.53
2023-05-18T12:54:07.949Z,100026.38
2023-05-18T12:57:01.860Z,100029.09
2023-05-18T12:59:30.110Z,100028.62
2023-05-18T13:01:59.152Z,100026.13
2023-05-18T13:04:35.501Z,100028.88
2023-05-18T13:07:03.163Z,100022.34
2023-05-18T13:09:30.678Z,100027.19
2023-05-18T13:12:06.902Z,100020.94
2023-05-18T13:14:38.156Z,100020.94
2023-05-18T13:17:05.674Z,100019.03
2023-05-18T13:19:34.974Z,100026.97
2023-05-18T13:22:02.615Z,100025.53
2023-05-18T13:24:29.948Z,100028.88
2023-05-18T13:26:57.310Z,100034.31
2023-05-18T13:29:24.921Z,100032.66
2023-05-18T13:31:52.280Z,100038.09
2023-05-18T13:34:19.673Z,100033.47
2023-05-18T13:36:47.326Z,100028.03
2023-05-18T13:39:14.750Z,100032.41
2023-05-18T13:41:42.154Z,100030.53
2023-05-18T13:44:09.870Z,100032.41
2023-05-18T13:46:37.951Z,100034.31
2023-05-18T13:49:05.662Z,100031.59
2023-05-18T13:51:33.282Z,100039.75
2023-05-18T13:54:01.746Z,100032.41
2023-05-18T13:56:29.068Z,100038.94
2023-05-18T13:58:56.703Z,100039.53
2023-05-18T14:01:24.062Z,100038.69
2023-05-18T14:03:51.728Z,100038.69
2023-05-18T14:06:20.856Z,100045.59
2023-05-18T14:08:48.220Z,100048.31
2023-05-18T14:11:15.798Z,100039.94
2023-05-18T14:13:43.153Z,100051.88
2023-05-18T14:16:10.844Z,100046.19
2023-05-18T14:18:38.503Z,100045.13
2023-05-18T14:21:05.843Z,100037.84
2023-05-18T14:23:33.218Z,100032.38
2023-05-18T14:26:01.101Z,100031.31
2023-05-18T14:28:30.182Z,100043.06
2023-05-18T14:30:57.581Z,100044.94
2023-05-18T14:33:25.197Z,100049.56
2023-05-18T14:35:52.690Z,100047.88
2023-05-18T14:38:20.044Z,100050.59
2023-05-18T14:40:47.651Z,100047.88
2023-05-18T14:43:15.096Z,100045.13
2023-05-18T14:45:43.605Z,100045.13
2023-05-18T14:48:13.944Z,100049.75
2023-05-18T14:50:41.350Z,100045.13
2023-05-18T14:53:08.718Z,100052.47
2023-05-18T14:55:36.360Z,100057.94
2023-05-18T14:58:06.215Z,100045.38
2023-05-18T15:00:33.922Z,100047.25
2023-05-18T15:03:01.973Z,100058.75
2023-05-18T15:05:29.602Z,100054.59
2023-05-18T15:07:56.957Z,100054.37
2023-05-18T15:10:24.537Z,100051.88
2023-05-18T15:12:51.882Z,100050.00
2023-05-18T15:15:19.217Z,100047.50
2023-05-18T15:17:46.895Z,100052.94
2023-05-18T15:20:14.244Z,100048.31
2023-05-18T15:22:41.555Z,100057.56
2023-05-18T15:25:09.243Z,100056.69
2023-05-18T15:27:37.186Z,100066.56
2023-05-18T15:30:11.303Z,100059.41
2023-05-18T15:32:44.982Z,100054.81
2023-05-18T15:35:12.449Z,100055.66
2023-05-18T15:37:40.120Z,100053.97
2023-05-18T15:40:08.306Z,100054.59
2023-05-18T15:42:35.633Z,100049.38
2023-05-18T15:45:03.298Z,100053.78
2023-05-18T15:47:30.734Z,100051.88
2023-05-18T15:49:58.399Z,100051.66
2023-05-18T15:52:26.025Z,100051.66
2023-05-18T15:54:53.333Z,100056.03
2023-05-18T15:57:22.211Z,100045.13
2023-05-18T15:59:49.784Z,100067.56
2023-05-18T16:02:17.177Z,100062.72
2023-05-18T16:04:44.806Z,100057.25
2023-05-18T16:07:12.180Z,100071.72
2023-05-18T16:09:39.547Z,100068.78
2023-05-18T16:12:08.220Z,100072.34
2023-05-18T16:14:35.585Z,100076.72
2023-05-18T16:17:06.030Z,100073.56
2023-05-18T16:19:34.064Z,100073.56
2023-05-18T16:22:01.451Z,100078.78
2023-05-18T16:24:28.930Z,100081.28
2023-05-18T16:26:57.002Z,100076.47
2023-05-18T16:29:24.415Z,100075.19
2023-05-18T16:31:52.033Z,100078.53
2023-05-18T16:34:19.844Z,100083.75
2023-05-18T16:36:47.237Z,100079.97
2023-05-18T16:39:14.592Z,100080.78
2023-05-18T16:41:42.230Z,100081.44
2023-05-18T16:44:09.627Z,100072.19
2023-05-18T16:46:36.994Z,100079.09
2023-05-18T16:49:05.096Z,100081.59
2023-05-18T16:51:32.550Z,100076.16
2023-05-18T16:53:59.881Z,100083.94
2023-05-18T16:56:27.685Z,100076.59
2023-05-18T16:58:55.028Z,100077.19
2023-05-18T17:03:53.030Z,100078.84
2023-05-18T17:06:21.320Z,100081.56
2023-05-18T17:08:53.064Z,100084.94
2023-05-18T17:11:21.230Z,100081.37
2023-05-18T17:13:48.601Z,100082.78
2023-05-18T17:16:18.767Z,100088.88
2023-05-18T17:18:46.731Z,100087.81
2023-05-18T17:21:14.110Z,100095.75
2023-05-18T17:23:41.485Z,100093.88
2023-05-18T17:26:09.045Z,100101.84
2023-05-18T17:28:36.411Z,100093.44
2023-05-18T17:31:03.913Z,100097.81
2023-05-18T17:33:32.053Z,100095.91
2023-05-18T17:35:59.418Z,100102.00
2023-05-18T17:38:26.968Z,100099.03
2023-05-18T17:40:54.643Z,100103.22
2023-05-18T17:43:22.041Z,100099.44
2023-05-18T17:45:49.565Z,100099.22
2023-05-18T17:48:17.156Z,100099.84
2023-05-18T17:50:45.556Z,100097.72
2023-05-18T17:53:12.953Z,100104.63
2023-05-18T17:55:41.629Z,100105.44
2023-05-18T17:58:08.983Z,100096.22
2023-05-18T18:00:36.543Z,100092.41
2023-05-18T18:03:04.643Z,100093.06
2023-05-18T18:05:33.957Z,100096.38
2023-05-18T18:08:02.685Z,100091.75
2023-05-18T18:10:32.035Z,100088.50
2023-05-18T18:12:59.635Z,100087.28
2023-05-18T18:15:28.944Z,100087.75
2023-05-18T18:17:56.837Z,100097.84
2023-05-18T18:20:25.128Z,100096.53
2023-05-18T18:22:53.080Z,100095.94
2023-05-18T18:25:21.021Z,100098.66
2023-05-18T18:27:48.479Z,100107.44
2023-05-18T18:30:16.520Z,100110.41
2023-05-18T18:32:44.416Z,100110.41
2023-05-18T18:35:12.103Z,100123.78
2023-05-18T18:37:39.884Z,100121.31
2023-05-18T18:40:08.290Z,100124.03
2023-05-18T18:42:36.190Z,100136.00
2023-05-18T18:45:07.561Z,100136.00
2023-05-18T18:47:39.026Z,100133.28
2023-05-18T18:50:07.415Z,100131.78
2023-05-18T18:52:35.490Z,100139.09
2023-05-18T18:55:02.962Z,100134.69
2023-05-18T18:57:31.025Z,100138.25
2023-05-18T18:59:59.121Z,100147.25
2023-05-18T19:02:27.702Z,100145.84
2023-05-18T19:04:58.320Z,100140.38
2023-05-18T19:07:26.253Z,100143.94
2023-05-18T19:09:54.006Z,100142.88
2023-05-18T19:12:21.459Z,100145.00
2023-05-18T19:14:49.357Z,100149.63
2023-05-18T19:17:17.003Z,100145.59
2023-05-18T19:19:45.018Z,100151.06
2023-05-18T19:22:14.786Z,100157.56
2023-05-18T19:24:42.647Z,100164.09
2023-05-18T19:27:10.217Z,100160.28
2023-05-18T19:29:38.108Z,100164.91
2023-05-18T19:32:06.494Z,100178.31
2023-05-18T19:34:34.261Z,100171.19
2023-05-18T19:37:02.174Z,100181.28
2023-05-18T19:39:29.988Z,100180.44
2023-05-18T19:41:57.604Z,100182.34
2023-05-18T19:44:25.280Z,100181.50
2023-05-18T19:46:52.797Z,100184.44
2023-05-18T19:49:20.852Z,100189.87
2023-05-18T19:51:48.605Z,100199.97
2023-05-18T19:54:16.098Z,100202.69
2023-05-18T19:56:43.613Z,100206.47
2023-05-18T19:59:11.488Z,100204.56
2023-05-18T20:01:39.066Z,100205.41
2023-05-18T20:04:06.867Z,100206.69
2023-05-18T20:06:34.342Z,100225.78
2023-05-18T20:09:01.819Z,100210.25
2023-05-18T20:11:29.712Z,100215.72
2023-05-18T20:13:57.252Z,100209.63
2023-05-18T20:16:26.404Z,100212.34
2023-05-18T20:18:54.274Z,100217.81
2023-05-18T20:21:21.852Z,100216.16
2023-05-18T20:23:49.348Z,100220.75
2023-05-18T20:26:17.106Z,100225.38
2023-05-18T20:28:44.566Z,100229.16
2023-05-18T20:31:12.073Z,100222.03
2023-05-18T20:33:40.236Z,100232.09
2023-05-18T20:36:09.007Z,100224.75
2023-05-18T20:38:38.744Z,100227.47
2023-05-18T20:41:09.687Z,100224.97
2023-05-18T20:43:39.943Z,100230.44
2023-05-18T20:46:08.237Z,100229.59
2023-05-18T20:48:35.891Z,100239.44
2023-05-18T20:51:03.430Z,100230.44
2023-05-18T20:53:31.276Z,100227.94
2023-05-18T20:56:01.211Z,100229.59
2023-05-18T20:58:28.938Z,100230.03
2023-05-18T21:00:56.709Z,100228.13
2023-05-18T21:03:24.708Z,100240.09
2023-05-18T21:05:52.229Z,100227.53
2023-05-18T21:08:20.054Z,100229.41
2023-05-18T21:10:47.469Z,100237.59
2023-05-18T21:13:15.143Z,100231.31
2023-05-18T21:15:42.927Z,100240.53
2023-05-18T21:18:10.571Z,100240.75
2023-05-18T21:20:38.056Z,100241.81
2023-05-18T21:23:05.798Z,100239.09
2023-05-18T21:25:33.288Z,100248.09
2023-05-18T21:28:00.846Z,100249.16
2023-05-18T21:30:29.766Z,100239.31
2023-05-18T21:32:57.466Z,100245.78
2023-05-18T21:35:25.010Z,100243.94
2023-05-18T21:37:52.718Z,100250.41
2023-05-18T21:40:20.192Z,100247.91
2023-05-18T21:42:47.733Z,100251.47
2023-05-18T21:45:16.372Z,100250.63
2023-05-18T21:47:43.872Z,100253.13
2023-05-18T21:50:11.508Z,100255.03
2023-05-18T21:52:39.202Z,100253.13
2023-05-18T21:55:07.084Z,100250.41
2023-05-18T21:57:34.640Z,100255.88
2023-05-18T22:00:02.368Z,100256.69
2023-05-18T22:02:40.634Z,100255.03
2023-05-18T22:05:09.439Z,100260.47
2023-05-18T22:07:36.963Z,100259.66
2023-05-18T22:10:04.785Z,100255.03
2023-05-18T22:12:33.359Z,100255.88
2023-05-18T22:15:00.817Z,100248.75
2023-05-18T22:17:28.365Z,100264.03
2023-05-18T22:19:58.027Z,100258.81
2023-05-18T22:22:30.123Z,100265.09
2023-05-18T22:24:58.593Z,100253.38
2023-05-18T22:27:26.476Z,100261.53
2023-05-18T22:29:53.927Z,100259.88
2023-05-18T22:32:21.800Z,100264.25
2023-05-18T22:34:49.521Z,100264.50
2023-05-18T22:37:16.991Z,100259.88
2023-05-18T22:39:44.820Z,100263.66
2023-05-18T22:42:12.377Z,100263.66
2023-05-18T22:44:39.906Z,100259.88
2023-05-18T22:47:07.622Z,100259.88
2023-05-18T22:49:35.931Z,100258.22
2023-05-18T22:52:06.648Z,100257.34
2023-05-18T22:54:34.578Z,100250.03
2023-05-18T22:57:02.092Z,100246.44
2023-05-18T22:59:29.527Z,100242.69
2023-05-18T23:01:57.332Z,100245.62
2023-05-18T23:04:24.810Z,100241.00
2023-05-18T23:06:52.286Z,100239.34
2023-05-18T23:09:20.099Z,100243.72
2023-05-18T23:11:48.584Z,100238.28
2023-05-18T23:14:16.111Z,100243.72
2023-05-18T23:16:43.891Z,100252.34
2023-05-18T23:19:12.619Z,100244.19
2023-05-18T23:21:40.464Z,100249.81
2023-05-18T23:24:12.241Z,100250.87
2023-05-18T23:26:43.434Z,100255.72
2023-05-18T23:29:11.226Z,100256.78
2023-05-18T23:31:38.712Z,100260.13
2023-05-18T23:34:06.412Z,100262.00
2023-05-18T23:36:36.958Z,100262.00
2023-05-18T23:39:04.772Z,100259.28
2023-05-18T23:41:32.576Z,100260.34
2023-05-18T23:44:00.844Z,100258.66
2023-05-18T23:46:28.512Z,100251.53
2023-05-18T23:48:57.778Z,100253.44
2023-05-18T23:51:26.701Z,100252.59
2023-05-18T23:53:54.142Z,100262.44
2023-05-18T23:56:21.860Z,100257.00
2023-05-18T23:58:49.885Z,100248.81
